createdAt,value
2022-12-12T00:04:02.719Z,52.17
2022-12-12T00:09:04.727Z,48.13
2022-12-12T00:14:06.206Z,50.70
2022-12-12T00:19:07.627Z,54.63
2022-12-12T00:24:09.181Z,49.65
2022-12-12T00:29:11.207Z,51.72
2022-12-12T00:34:13.392Z,52.08
2022-12-12T00:39:18.351Z,46.95
2022-12-12T00:44:19.936Z,54.03
2022-12-12T00:49:21.328Z,55.92
2022-12-12T00:54:23.594Z,54.70
2022-12-12T00:59:25.013Z,47.08
2022-12-12T01:04:26.382Z,50.80
2022-12-12T01:09:27.774Z,46.42
2022-12-12T01:14:29.164Z,56.45
2022-12-12T01:19:30.513Z,47.70
2022-12-12T01:24:32.015Z,46.30
2022-12-12T01:29:34.764Z,52.70
2022-12-12T01:34:36.162Z,52.30
2022-12-12T01:39:37.519Z,47.42
2022-12-12T01:44:45.878Z,52.90
2022-12-12T01:49:59.438Z,55.78
2022-12-12T01:55:05.256Z,49.55
2022-12-12T02:00:08.448Z,48.08
2022-12-12T02:05:23.047Z,54.38
2022-12-12T02:10:24.510Z,48.13
2022-12-12T02:15:30.328Z,48.50
2022-12-12T02:20:45.902Z,50.70
2022-12-12T02:26:21.053Z,51.17
2022-12-12T02:31:27.320Z,57.33
2022-12-12T02:37:00.646Z,49.35
2022-12-12T02:42:08.484Z,55.35
2022-12-12T02:52:17.777Z,50.70
2022-12-12T02:57:24.404Z,56.38
2022-12-12T03:02:50.152Z,49.97
2022-12-12T03:08:11.396Z,48.80
2022-12-12T03:13:27.259Z,46.85
2022-12-12T03:18:40.531Z,56.17
2022-12-12T03:23:46.995Z,49.80
2022-12-12T03:28:55.960Z,52.30
2022-12-12T03:34:02.291Z,55.15
2022-12-12T03:39:13.388Z,53.33
2022-12-12T03:44:20.535Z,54.58
2022-12-12T03:49:34.441Z,54.75
2022-12-12T03:54:48.718Z,54.63
2022-12-12T03:59:58.435Z,52.05
2022-12-12T04:05:20.589Z,56.88
2022-12-12T04:10:43.812Z,52.75
2022-12-12T04:15:51.977Z,55.10
2022-12-12T04:21:18.246Z,59.80
2022-12-12T04:26:41.633Z,52.47
2022-12-12T04:31:58.663Z,53.22
2022-12-12T04:37:01.466Z,61.53
2022-12-12T04:42:06.687Z,52.70
2022-12-12T04:47:09.959Z,49.08
2022-12-12T04:52:15.205Z,59.38
2022-12-12T04:57:25.909Z,58.13
2022-12-12T05:02:40.326Z,58.33
2022-12-12T05:07:45.703Z,56.65
2022-12-12T05:12:49.982Z,67.57
2022-12-12T05:18:00.732Z,58.80
2022-12-12T05:23:02.138Z,60.35
2022-12-12T05:28:03.610Z,62.33
2022-12-12T05:33:05.130Z,64.68
2022-12-12T05:38:06.536Z,62.30
2022-12-12T05:43:07.893Z,64.43
2022-12-12T05:48:09.236Z,60.58
2022-12-12T05:53:11.262Z,58.97
2022-12-12T05:58:12.601Z,61.80
2022-12-12T06:03:14.397Z,57.63
2022-12-12T06:08:16.241Z,60.42
2022-12-12T06:13:19.418Z,67.65
2022-12-12T06:18:20.841Z,58.85
2022-12-12T06:23:22.176Z,57.83
2022-12-12T06:28:23.574Z,67.22
2022-12-12T06:33:25.555Z,63.75
2022-12-12T06:38:27.095Z,65.55
2022-12-12T06:43:28.458Z,64.75
2022-12-12T06:48:31.611Z,67.72
2022-12-12T06:53:33.574Z,64.75
2022-12-12T06:58:35.615Z,64.68
2022-12-12T07:03:37.028Z,64.97
2022-12-12T07:08:38.888Z,64.28
2022-12-12T07:13:40.885Z,65.38
2022-12-12T07:18:42.308Z,59.05
2022-12-12T07:23:44.138Z,62.45
2022-12-12T07:28:45.812Z,66.15
2022-12-12T07:33:47.585Z,65.50
2022-12-12T07:38:49.057Z,71.00
2022-12-12T07:43:52.176Z,64.53
2022-12-12T07:48:53.871Z,65.95
2022-12-12T07:53:55.336Z,62.58
2022-12-12T07:58:58.014Z,70.55
2022-12-12T08:03:59.912Z,64.88
2022-12-12T08:09:01.824Z,63.15
2022-12-12T08:14:11.200Z,62.53
2022-12-12T08:19:14.483Z,54.80
2022-12-12T08:24:19.140Z,63.05
2022-12-12T08:29:20.959Z,60.13
2022-12-12T08:34:22.443Z,64.30
2022-12-12T08:39:23.891Z,63.90
2022-12-12T08:44:25.454Z,60.58
2022-12-12T08:49:26.985Z,64.55
2022-12-12T08:54:28.485Z,61.45
2022-12-12T08:59:30.232Z,58.80
2022-12-12T09:04:33.672Z,61.97
2022-12-12T09:09:35.233Z,51.83
2022-12-12T09:14:36.844Z,57.17
2022-12-12T09:19:38.398Z,61.63
2022-12-12T09:24:39.893Z,61.05
2022-12-12T09:29:41.475Z,54.65
2022-12-12T09:34:43.209Z,50.38
2022-12-12T09:39:44.825Z,56.17
2022-12-12T09:44:47.422Z,57.65
2022-12-12T09:49:55.635Z,56.58
2022-12-12T09:54:59.997Z,59.30
2022-12-12T10:00:12.065Z,60.97
2022-12-12T10:05:41.226Z,51.42
2022-12-12T10:10:46.290Z,62.58
2022-12-12T10:15:52.238Z,54.30
2022-12-12T10:20:57.970Z,55.42
2022-12-12T10:26:05.287Z,55.13
2022-12-12T10:31:09.433Z,55.65
2022-12-12T10:36:27.917Z,52.03
2022-12-12T10:42:15.375Z,50.50
2022-12-12T10:47:17.065Z,57.78
2022-12-12T10:52:22.012Z,59.75
2022-12-12T10:57:26.189Z,62.38
2022-12-12T11:02:52.328Z,66.05
2022-12-12T11:08:19.539Z,60.05
2022-12-12T11:13:29.379Z,57.33
2022-12-12T11:18:31.006Z,57.60
2022-12-12T11:23:34.116Z,55.20
2022-12-12T11:28:37.958Z,56.08
2022-12-12T11:33:49.650Z,63.10
2022-12-12T11:38:54.894Z,57.15
2022-12-12T11:44:00.278Z,59.50
2022-12-12T11:49:04.837Z,57.25
2022-12-12T11:54:44.977Z,54.38
2022-12-12T12:00:09.857Z,47.88
2022-12-12T12:05:25.466Z,53.42
2022-12-12T12:11:02.287Z,48.05
2022-12-12T12:16:46.820Z,47.63
2022-12-12T12:22:16.780Z,49.58
2022-12-12T12:27:52.138Z,58.88
2022-12-12T12:33:15.140Z,62.70
2022-12-12T12:38:31.763Z,53.85
2022-12-12T12:43:57.814Z,56.33
2022-12-12T12:49:10.617Z,56.55
2022-12-12T12:54:26.007Z,49.53
2022-12-12T12:59:34.175Z,61.17
2022-12-12T13:04:53.894Z,57.70
2022-12-12T13:10:04.661Z,51.95
2022-12-12T13:15:44.849Z,56.30
2022-12-12T13:21:05.417Z,51.33
2022-12-12T13:26:13.249Z,54.10
2022-12-12T13:31:24.382Z,57.05
2022-12-12T13:36:31.587Z,51.25
2022-12-12T13:41:56.370Z,48.20
2022-12-12T13:46:59.094Z,48.25
2022-12-12T13:52:40.558Z,45.90
2022-12-12T13:57:57.520Z,44.60
2022-12-12T14:03:05.162Z,47.97
2022-12-12T14:08:13.684Z,52.10
2022-12-12T14:13:24.152Z,50.67
2022-12-12T14:18:33.672Z,56.85
2022-12-12T14:23:40.131Z,52.20
2022-12-12T14:28:43.338Z,50.83
2022-12-12T14:34:05.609Z,50.22
2022-12-12T14:39:24.918Z,48.92
2022-12-12T14:44:37.938Z,52.65
2022-12-12T14:49:40.496Z,54.55
2022-12-12T14:54:42.027Z,53.15
2022-12-12T14:59:43.520Z,54.05
2022-12-12T15:04:49.478Z,55.33
2022-12-12T15:09:51.074Z,53.47
2022-12-12T15:21:37.760Z,58.55
2022-12-12T15:26:39.273Z,60.42
2022-12-12T15:31:44.325Z,51.60
2022-12-12T15:36:45.930Z,52.95
2022-12-12T15:41:47.975Z,50.38
2022-12-12T15:46:50.485Z,60.85
2022-12-12T15:51:52.227Z,54.15
2022-12-12T15:56:56.515Z,58.78
2022-12-12T16:02:13.678Z,47.65
2022-12-12T16:07:21.620Z,57.93
2022-12-12T16:12:57.022Z,56.85
2022-12-12T16:18:04.607Z,53.05
2022-12-12T16:23:31.810Z,55.22
2022-12-12T16:28:33.498Z,54.42
2022-12-12T16:33:38.724Z,59.60
2022-12-12T16:38:42.065Z,50.63
2022-12-12T16:43:44.939Z,60.33
2022-12-12T16:48:46.675Z,55.92
2022-12-12T16:53:48.099Z,51.58
2022-12-12T16:58:50.745Z,50.67
2022-12-12T17:03:52.471Z,52.08
2022-12-12T17:08:54.136Z,53.35
2022-12-12T17:13:55.707Z,52.83
2022-12-12T17:18:58.429Z,44.10
2022-12-12T17:23:59.964Z,52.85
2022-12-12T17:29:02.438Z,45.75
2022-12-12T17:34:05.845Z,49.95
2022-12-12T17:39:07.646Z,46.10
2022-12-12T17:44:10.022Z,46.00
2022-12-12T17:49:11.652Z,52.65
2022-12-12T17:54:13.199Z,58.70
2022-12-12T17:59:14.895Z,53.47
2022-12-12T18:04:16.456Z,49.60
2022-12-12T18:09:18.551Z,53.22
2022-12-12T18:14:20.302Z,51.65
2022-12-12T18:19:24.132Z,52.83
2022-12-12T18:24:29.304Z,55.83
2022-12-12T18:29:32.153Z,51.38
2022-12-12T18:34:34.245Z,47.33
2022-12-12T18:39:35.999Z,50.97
2022-12-12T18:44:37.943Z,53.10
2022-12-12T18:49:39.624Z,46.58
2022-12-12T18:54:41.283Z,47.33
2022-12-12T18:59:45.392Z,48.65
2022-12-12T19:04:48.541Z,47.00
2022-12-12T19:09:50.132Z,49.78
2022-12-12T19:15:15.709Z,45.88
2022-12-12T19:20:13.475Z,46.67
2022-12-12T19:25:17.258Z,56.55
2022-12-12T19:30:18.971Z,44.47
2022-12-12T19:35:21.448Z,41.83
2022-12-12T19:40:22.972Z,45.97
2022-12-12T19:45:24.552Z,52.83
2022-12-12T19:50:26.297Z,53.65
2022-12-12T19:55:27.825Z,51.92
2022-12-12T20:00:29.309Z,44.28
2022-12-12T20:05:30.858Z,48.95
2022-12-12T20:10:36.382Z,39.28
2022-12-12T20:15:39.238Z,52.05
2022-12-12T20:20:40.819Z,53.15
2022-12-12T20:25:42.812Z,48.45
2022-12-12T20:30:44.371Z,50.33
2022-12-12T20:35:45.996Z,41.92
2022-12-12T20:40:49.114Z,46.25
2022-12-12T20:45:51.106Z,48.28
2022-12-12T20:50:54.789Z,44.22
2022-12-12T20:55:59.030Z,55.95
2022-12-12T21:01:03.433Z,50.70
2022-12-12T21:06:36.465Z,46.78
2022-12-12T21:11:38.776Z,53.03
2022-12-12T21:16:40.959Z,46.00
2022-12-12T21:21:43.492Z,46.13
2022-12-12T21:26:45.835Z,47.92
2022-12-12T21:31:51.628Z,47.50
2022-12-12T21:37:22.635Z,52.50
2022-12-12T21:42:24.161Z,44.20
2022-12-12T21:47:25.669Z,52.67
2022-12-12T21:52:27.161Z,44.15
2022-12-12T21:57:28.636Z,47.38
2022-12-12T22:02:30.349Z,43.33
2022-12-12T22:07:34.744Z,41.50
2022-12-12T22:12:36.209Z,42.55
2022-12-12T22:17:37.762Z,47.42
2022-12-12T22:22:39.393Z,44.90
2022-12-12T22:27:40.874Z,45.50
2022-12-12T22:32:43.327Z,46.15
2022-12-12T22:37:45.120Z,48.20
2022-12-12T22:42:46.559Z,43.78
2022-12-12T22:47:48.038Z,51.47
2022-12-12T22:52:49.484Z,46.28
2022-12-12T22:57:54.054Z,44.63
2022-12-12T23:02:57.019Z,43.05
2022-12-12T23:07:59.506Z,37.50
2022-12-12T23:13:01.178Z,44.63
2022-12-12T23:18:02.583Z,45.50
2022-12-12T23:23:03.922Z,45.20
2022-12-12T23:28:07.129Z,42.50
2022-12-12T23:33:12.081Z,43.83
2022-12-12T23:38:13.743Z,48.28
2022-12-12T23:43:15.157Z,42.70
2022-12-12T23:48:16.506Z,63.05
2022-12-12T23:53:17.871Z,55.10
2022-12-12T23:58:19.533Z,67.47
